Time;durP1;ratioP1;P1;durP2;ratioP2;P2;SDS_P1;SDS_P2;PMS_P1;PMS_P2;Temp;Humidity;BMP_temperature;BMP_pressure;BME280_temperature;BME280_humidity;BME280_pressure;Samples;Min_cycle;Max_cycle;Signal;HPM_P1;HPM_P2
2022/01/03 00:01:14;;;;;;;5.18;1.17;;;;;;;10.84;82.56;99102.13;5096133;28;20056;-78
2022/01/03 00:03:41;;;;;;;3.15;0.70;;;;;;;10.83;81.25;99072.41;5096643;28;20052;-78
2022/01/03 00:06:08;;;;;;;3.50;0.80;;;;;;;10.84;81.35;99077.66;5096410;28;20058;-79
2022/01/03 00:08:36;;;;;;;8.65;1.10;;;;;;;11.03;78.12;99065.31;5105981;28;20067;-78
2022/01/03 00:11:03;;;;;;;4.78;0.75;;;;;;;11.06;79.19;99067.66;5115803;28;20053;-79
2022/01/03 00:13:30;;;;;;;2.75;0.80;;;;;;;11.21;77.70;99056.75;5096580;28;20048;-78
2022/01/03 00:15:57;;;;;;;2.83;1.13;;;;;;;11.28;77.26;99049.50;5112695;28;20043;-78
2022/01/03 00:18:24;;;;;;;5.88;1.30;;;;;;;11.23;77.02;99043.81;5115904;28;20051;-78
2022/01/03 00:20:58;;;;;;;1.40;0.63;;;;;;;11.04;79.76;99039.00;5116686;28;20060;-78
2022/01/03 00:23:27;;;;;;;2.63;0.75;;;;;;;11.08;78.02;99046.56;5097442;28;20094;-78
2022/01/03 00:26:00;;;;;;;7.00;1.25;;;;;;;11.04;78.60;99033.53;5104833;28;20083;-79
2022/01/03 00:28:34;;;;;;;4.45;1.05;;;;;;;10.93;78.14;99029.41;5113682;28;20108;-79
2022/01/03 00:31:02;;;;;;;2.78;0.88;;;;;;;11.09;77.29;99033.81;5116698;28;20395;-79
2022/01/03 00:33:30;;;;;;;5.20;0.73;;;;;;;11.11;76.92;99045.31;5116188;28;20074;-79
2022/01/03 00:35:59;;;;;;;3.97;0.80;;;;;;;11.13;76.12;99035.94;5107209;28;20048;-79
2022/01/03 00:38:28;;;;;;;5.88;1.05;;;;;;;11.09;76.97;99050.13;5113081;28;20101;-78
2022/01/03 00:40:59;;;;;;;3.97;1.30;;;;;;;11.00;76.89;99045.84;5116326;28;20462;-79
2022/01/03 00:43:27;;;;;;;2.83;0.70;;;;;;;10.97;76.49;99047.06;5112446;28;20050;-78
2022/01/03 00:45:55;;;;;;;3.78;0.98;;;;;;;10.94;77.15;99070.06;5115551;28;20398;-79
2022/01/03 00:48:22;;;;;;;6.45;1.40;;;;;;;11.03;75.83;99075.38;5115707;28;20048;-79
2022/01/03 00:50:49;;;;;;;2.97;0.93;;;;;;;10.99;76.14;99077.66;5098633;28;20051;-79
2022/01/03 00:53:16;;;;;;;2.60;1.40;;;;;;;10.86;77.19;99077.47;5110244;28;20047;-78
2022/01/03 00:56:01;;;;;;;4.85;1.10;;;;;;;10.77;77.50;99074.00;5095635;28;20056;-79
2022/01/03 00:58:31;;;;;;;12.25;1.77;;;;;;;11.01;74.75;99067.41;5104774;28;20096;-79
2022/01/03 01:01:00;;;;;;;4.18;1.00;;;;;;;11.04;74.52;99067.03;5115822;27;20052;-78
2022/01/03 01:03:34;;;;;;;9.43;1.30;;;;;;;10.84;76.11;99063.19;5108164;28;20066;-78
2022/01/03 01:06:03;;;;;;;3.67;0.93;;;;;;;10.89;76.13;99077.91;5095535;28;20051;-79
2022/01/03 01:08:34;;;;;;;3.75;1.10;;;;;;;10.90;74.94;99084.19;5099920;28;20048;-79
2022/01/03 01:11:05;;;;;;;4.40;0.98;;;;;;;10.95;73.60;99068.16;5095394;28;20048;-79
2022/01/03 01:13:32;;;;;;;3.10;0.80;;;;;;;10.97;74.27;99080.56;5104649;28;20048;-78
2022/01/03 01:15:59;;;;;;;4.65;0.60;;;;;;;10.95;73.86;99077.16;5115828;28;20070;-79
2022/01/03 01:18:31;;;;;;;3.42;0.90;;;;;;;10.95;75.30;99074.44;5115110;28;20052;-78
2022/01/03 01:20:58;;;;;;;3.60;0.95;;;;;;;11.01;73.99;99066.56;5115269;28;20054;-79
2022/01/03 01:23:25;;;;;;;5.78;1.10;;;;;;;11.05;74.00;99068.72;5103275;27;20399;-78
2022/01/03 01:28:40;;;;;;;5.82;1.00;;;;;;;10.92;75.52;99071.28;5086987;28;20423;-78
2022/01/03 01:31:08;;;;;;;6.25;0.85;;;;;;;10.74;76.51;99066.22;5114887;28;20052;-78
2022/01/03 01:33:36;;;;;;;8.73;1.10;;;;;;;10.85;75.91;99082.03;5104481;28;20103;-78
2022/01/03 01:36:06;;;;;;;6.97;1.23;;;;;;;10.75;75.87;99063.31;5101861;28;20051;-79
2022/01/03 01:38:34;;;;;;;;;;;;;;;10.77;77.84;99091.16;5115342;28;20047;-79
2022/01/03 01:41:03;;;;;;;4.18;1.20;;;;;;;10.64;77.63;99096.41;5108140;28;19927;-79
2022/01/03 01:43:36;;;;;;;5.25;1.13;;;;;;;10.58;78.76;99086.28;5102027;28;20040;-79
2022/01/03 01:46:08;;;;;;;5.18;0.95;;;;;;;10.71;78.07;99096.50;5114489;28;20414;-79
2022/01/03 01:48:37;;;;;;;4.05;0.73;;;;;;;10.60;79.41;99093.22;5114920;28;20146;-79
2022/01/03 01:51:05;;;;;;;3.65;0.70;;;;;;;10.73;78.70;99110.75;5106154;27;20468;-79
2022/01/03 01:53:37;;;;;;;1.63;0.63;;;;;;;10.55;79.10;99087.50;5104490;28;20066;-78
2022/01/03 01:56:10;;;;;;;9.32;1.08;;;;;;;10.53;79.13;99070.53;5115161;28;20143;-78
2022/01/03 01:58:45;;;;;;;2.53;0.90;;;;;;;10.63;79.05;99086.56;5104309;28;20048;-78
2022/01/03 02:01:14;;;;;;;4.82;0.98;;;;;;;10.70;78.77;99097.53;5114471;28;20051;-79
2022/01/03 02:03:48;;;;;;;5.60;1.08;;;;;;;10.60;79.54;99106.81;5113631;28;20044;-79
2022/01/03 02:06:27;;;;;;;4.18;1.08;;;;;;;10.44;80.81;99087.97;5108112;28;20048;-79
2022/01/03 02:09:04;;;;;;;2.70;0.85;;;;;;;10.48;80.21;99108.31;5107409;28;20055;-79
2022/01/03 02:11:43;;;;;;;4.18;0.90;;;;;;;10.49;79.27;99101.81;5114384;28;20040;-78
2022/01/03 02:14:11;;;;;;;6.13;1.35;;;;;;;10.58;79.29;99113.44;5102976;28;20048;-78
2022/01/03 02:16:40;;;;;;;3.35;0.93;;;;;;;10.61;78.66;99108.50;5106951;28;20048;-79
2022/01/03 02:19:07;;;;;;;5.63;1.13;;;;;;;10.52;79.10;99116.91;5101263;28;20051;-79
2022/01/03 02:21:35;;;;;;;6.72;0.80;;;;;;;10.58;79.60;99106.16;5102668;28;20044;-79
2022/01/03 02:24:04;;;;;;;2.58;0.73;;;;;;;10.71;78.83;99118.25;5104824;28;20058;-78
2022/01/03 02:26:32;;;;;;;7.68;0.90;;;;;;;10.48;79.60;99104.72;5102489;28;20040;-79
2022/01/03 02:28:59;;;;;;;1.40;0.90;;;;;;;10.53;80.27;99115.91;5103327;28;20051;-79
2022/01/03 02:31:26;;;;;;;6.70;1.02;;;;;;;10.63;78.60;99114.59;5114053;28;20039;-78
2022/01/03 02:33:53;;;;;;;4.65;1.08;;;;;;;10.69;78.08;99123.03;5097008;28;20044;-78
2022/01/03 02:36:21;;;;;;;3.35;0.88;;;;;;;10.68;78.07;99127.63;5093849;28;20055;-79
2022/01/03 02:38:49;;;;;;;6.32;1.20;;;;;;;10.62;78.15;99114.78;5100376;28;20426;-78
2022/01/03 02:41:16;;;;;;;7.32;1.00;;;;;;;10.53;78.78;99110.47;5113658;28;20047;-79
2022/01/03 02:43:43;;;;;;;5.75;1.20;;;;;;;10.52;79.59;99112.31;5108271;28;20063;-78
2022/01/03 02:46:09;;;;;;;5.68;1.38;;;;;;;10.49;79.30;99107.25;5093297;28;20051;-79
2022/01/03 02:48:36;;;;;;;10.13;1.58;;;;;;;10.48;79.99;99130.06;5097690;28;20043;-79
2022/01/03 02:51:03;;;;;;;3.55;0.90;;;;;;;10.45;80.31;99127.69;5106044;28;20411;-78
2022/01/03 02:53:30;;;;;;;4.93;1.10;;;;;;;10.48;79.56;99118.31;5110286;28;20040;-78
2022/01/03 02:55:59;;;;;;;6.43;1.50;;;;;;;10.49;80.04;99134.44;5093979;28;20052;-78
2022/01/03 02:58:26;;;;;;;6.55;1.00;;;;;;;10.45;80.47;99141.28;5095898;28;20428;-79
2022/01/03 03:00:53;;;;;;;11.30;1.75;;;;;;;10.37;80.19;99112.31;5094803;28;20397;-78
2022/01/03 03:03:22;;;;;;;3.38;0.93;;;;;;;10.44;80.85;99143.16;5112952;28;20062;-78
2022/01/03 03:05:50;;;;;;;5.22;1.10;;;;;;;10.24;81.67;99129.22;5112505;28;20040;-78
2022/01/03 03:08:17;;;;;;;7.20;1.45;;;;;;;10.27;83.10;99145.16;5093831;28;20048;-78
2022/01/03 03:10:44;;;;;;;11.57;1.88;;;;;;;10.23;82.96;99141.09;5112746;28;20047;-79
2022/01/03 03:13:13;;;;;;;8.90;1.58;;;;;;;10.41;80.77;99142.69;5093546;28;20044;-79
2022/01/03 03:15:40;;;;;;;4.90;1.02;;;;;;;10.43;80.48;99140.63;5112053;28;20044;-78
2022/01/03 03:18:07;;;;;;;5.90;1.25;;;;;;;10.36;80.73;99151.38;5113948;28;20070;-80
2022/01/03 03:20:34;;;;;;;5.28;0.88;;;;;;;10.26;80.53;99134.47;5095839;27;20047;-79
2022/01/03 03:23:01;;;;;;;4.20;0.98;;;;;;;10.31;81.45;99155.66;5108009;28;20058;-78
2022/01/03 03:25:31;;;;;;;6.25;1.10;;;;;;;10.27;80.51;99139.72;5113189;27;20044;-79
2022/01/03 03:28:00;;;;;;;4.18;1.15;;;;;;;10.34;80.73;99149.88;5113367;27;20487;-78
2022/01/03 03:30:31;;;;;;;7.00;1.00;;;;;;;10.39;80.63;99152.91;5097874;28;20445;-78
2022/01/03 03:33:02;;;;;;;3.75;1.10;;;;;;;10.30;81.15;99151.22;5093198;28;20503;-78
2022/01/03 03:35:29;;;;;;;3.03;1.00;;;;;;;10.15;82.21;99134.91;5108416;28;20059;-79
2022/01/03 03:37:56;;;;;;;11.70;1.65;;;;;;;10.15;81.21;99135.75;5102090;27;20040;-78
2022/01/03 03:40:23;;;;;;;4.50;1.58;;;;;;;10.34;80.50;99144.44;5093179;28;20048;-78
2022/01/03 03:42:50;;;;;;;5.43;1.33;;;;;;;10.21;80.70;99137.72;5093948;28;20051;-78
2022/01/03 03:45:17;;;;;;;4.68;1.20;;;;;;;10.27;81.94;99149.75;5104878;28;20050;-79
2022/01/03 03:47:45;;;;;;;3.22;1.25;;;;;;;10.29;81.58;99150.41;5112819;28;20047;-78
2022/01/03 03:50:12;;;;;;;6.65;1.00;;;;;;;10.21;82.53;99145.88;5112324;28;20047;-78
2022/01/03 03:52:40;;;;;;;4.07;1.10;;;;;;;10.12;82.99;99136.13;5105685;28;20040;-79
2022/01/03 03:55:08;;;;;;;3.55;1.48;;;;;;;10.10;83.02;99135.44;5112224;28;20055;-79
2022/01/03 03:57:35;;;;;;;10.68;1.80;;;;;;;10.11;83.98;99139.84;5113348;28;20048;-78
2022/01/03 04:00:02;;;;;;;5.95;1.13;;;;;;;10.15;83.24;99146.63;5104274;28;20048;-78
2022/01/03 04:02:29;;;;;;;4.30;1.30;;;;;;;10.25;82.97;99168.94;5093393;28;20054;-79
2022/01/03 04:04:59;;;;;;;11.52;1.58;;;;;;;10.24;82.95;99148.22;5103429;28;20127;-78
2022/01/03 04:07:25;;;;;;;3.78;1.05;;;;;;;10.19;83.81;99139.81;5117156;27;20063;-78
2022/01/03 04:09:52;;;;;;;12.50;1.88;;;;;;;10.16;83.89;99144.72;5118873;27;20047;-78
2022/01/03 04:12:19;;;;;;;6.80;1.38;;;;;;;10.08;84.57;99135.63;5116862;28;20486;-78
2022/01/03 04:14:47;;;;;;;8.30;0.90;;;;;;;10.15;84.63;99157.47;5112031;28;20723;-78
2022/01/03 04:17:14;;;;;;;4.53;1.23;;;;;;;10.03;86.71;99148.09;5096868;28;20086;-78
2022/01/03 04:19:41;;;;;;;7.85;1.25;;;;;;;10.00;86.31;99154.72;5096832;28;20467;-78
2022/01/03 04:22:09;;;;;;;5.00;1.30;;;;;;;10.05;86.27;99157.72;5096428;28;20044;-78
2022/01/03 04:24:36;;;;;;;8.88;1.73;;;;;;;10.12;84.85;99154.25;5097957;28;20439;-78
2022/01/03 04:27:04;;;;;;;8.25;1.50;;;;;;;10.13;84.97;99148.66;5116873;28;20443;-78
2022/01/03 04:29:31;;;;;;;5.18;1.00;;;;;;;10.10;85.58;99157.16;5113186;28;20051;-78
2022/01/03 04:31:58;;;;;;;5.15;1.10;;;;;;;9.99;86.28;99141.31;5096235;28;20058;-78
2022/01/03 04:34:25;;;;;;;10.15;1.40;;;;;;;10.02;85.87;99163.50;5099948;28;20055;-78
2022/01/03 04:36:52;;;;;;;2.92;0.77;;;;;;;10.10;83.85;99158.03;5096239;28;20056;-78
2022/01/03 04:39:20;;;;;;;4.28;1.20;;;;;;;10.09;83.13;99166.38;5096077;28;20377;-78
2022/01/03 04:41:47;;;;;;;7.72;0.98;;;;;;;10.05;83.27;99174.00;5107014;28;20040;-79
2022/01/03 04:44:14;;;;;;;4.47;1.10;;;;;;;9.95;84.54;99173.44;5115790;28;20745;-78
2022/01/03 04:46:41;;;;;;;6.93;1.42;;;;;;;9.91;85.28;99166.66;5115654;28;20048;-78
2022/01/03 04:49:09;;;;;;;4.57;0.95;;;;;;;9.90;86.05;99173.13;5107828;28;20085;-78
2022/01/03 04:51:36;;;;;;;6.18;0.90;;;;;;;9.82;86.51;99171.31;5111162;28;20047;-79
2022/01/03 04:54:03;;;;;;;5.63;1.10;;;;;;;9.73;87.88;99170.50;5115467;27;20047;-78
2022/01/03 04:56:33;;;;;;;15.45;1.92;;;;;;;9.80;88.27;99184.22;5121027;27;20051;-78
2022/01/03 04:59:01;;;;;;;11.30;1.00;;;;;;;9.83;89.27;99193.84;5115713;28;20051;-78
2022/01/03 05:01:27;;;;;;;5.90;1.13;;;;;;;9.77;89.69;99191.84;5115013;28;20050;-78
2022/01/03 05:03:54;;;;;;;2.60;1.13;;;;;;;9.75;89.74;99200.19;5115806;28;20506;-79
2022/01/03 05:06:21;;;;;;;6.43;1.27;;;;;;;9.60;91.41;99186.53;5097070;28;20058;-79
2022/01/03 05:08:48;;;;;;;7.00;1.02;;;;;;;9.39;96.01;99189.84;5095344;28;20059;-78
2022/01/03 05:11:15;;;;;;;8.25;0.95;;;;;;;9.24;97.85;99200.59;5109806;28;20069;-78
2022/01/03 05:13:44;;;;;;;8.77;0.90;;;;;;;9.13;100.00;99199.13;5113436;28;20047;-78
2022/01/03 05:16:11;;;;;;;3.08;0.70;;;;;;;8.97;100.00;99201.88;5115918;28;20403;-79
2022/01/03 05:18:38;;;;;;;3.53;0.95;;;;;;;8.84;100.00;99205.16;5095214;28;20055;-78
2022/01/03 05:21:05;;;;;;;5.78;0.60;;;;;;;8.75;100.00;99195.34;5095003;28;20051;-78
2022/01/03 05:23:32;;;;;;;4.40;1.02;;;;;;;8.67;100.00;99204.31;5107995;28;20406;-79
2022/01/03 05:25:59;;;;;;;3.80;1.35;;;;;;;8.49;100.00;99188.22;5115409;28;20048;-78
2022/01/03 05:28:26;;;;;;;5.03;1.05;;;;;;;8.42;100.00;99198.88;5114925;28;20065;-78
2022/01/03 05:30:54;;;;;;;7.63;1.38;;;;;;;8.41;100.00;99188.22;5106710;28;20050;-78
2022/01/03 05:33:21;;;;;;;3.92;1.23;;;;;;;8.49;100.00;99199.94;5104240;28;20502;-79
2022/01/03 05:35:48;;;;;;;4.45;0.85;;;;;;;8.47;100.00;99193.81;5094780;28;20135;-78
2022/01/03 05:38:15;;;;;;;5.05;0.80;;;;;;;8.35;100.00;99173.50;5094819;28;20059;-78
2022/01/03 05:40:42;;;;;;;5.50;0.90;;;;;;;8.41;100.00;99189.06;5094493;28;20063;-78
2022/01/03 05:43:10;;;;;;;3.85;1.08;;;;;;;8.26;100.00;99169.09;5096304;28;20055;-78
2022/01/03 05:45:37;;;;;;;4.88;1.73;;;;;;;8.28;100.00;99183.31;5114004;28;20043;-78
2022/01/03 05:48:06;;;;;;;3.47;2.55;;;;;;;8.34;100.00;99190.78;5112622;28;20048;-82
2022/01/03 05:50:33;;;;;;;4.70;1.00;;;;;;;8.19;100.00;99181.63;5112421;28;20048;-81
2022/01/03 05:53:00;;;;;;;4.65;1.00;;;;;;;8.23;100.00;99191.09;5108143;28;20131;-78
2022/01/03 05:55:27;;;;;;;10.20;1.13;;;;;;;8.25;100.00;99194.47;5110010;28;20054;-79
2022/01/03 05:57:54;;;;;;;5.72;1.13;;;;;;;8.18;100.00;99182.66;5094366;28;20048;-82
2022/01/03 06:00:24;;;;;;;7.45;1.33;;;;;;;8.13;100.00;99185.88;5094022;28;20055;-80
2022/01/03 06:02:55;;;;;;;3.78;0.93;;;;;;;8.21;100.00;99191.28;5112773;28;20074;-81
2022/01/03 06:05:41;;;;;;;21.63;1.73;;;;;;;8.17;100.00;99179.06;5093573;28;20399;-81
2022/01/03 06:08:08;;;;;;;6.15;1.42;;;;;;;8.24;100.00;99207.19;5103498;28;20128;-80
2022/01/03 06:10:40;;;;;;;2.88;1.10;;;;;;;8.27;100.00;99197.88;5093824;28;20074;-81
2022/01/03 06:13:07;;;;;;;6.72;1.50;;;;;;;8.25;100.00;99178.22;5099664;28;20117;-81
2022/01/03 06:15:38;;;;;;;5.13;0.95;;;;;;;8.23;100.00;99183.81;5100945;28;20077;-80
2022/01/03 06:18:10;;;;;;;8.65;1.92;;;;;;;8.39;100.00;99203.81;5102737;28;20461;-81
2022/01/03 06:20:41;;;;;;;5.40;1.55;;;;;;;8.27;100.00;99177.06;5105785;28;20526;-80
2022/01/03 06:23:09;;;;;;;5.40;1.00;;;;;;;8.39;100.00;99199.22;5109451;28;20066;-81
2022/01/03 06:25:36;;;;;;;8.25;1.35;;;;;;;8.33;100.00;99189.91;5108102;28;20050;-81
2022/01/03 06:28:07;;;;;;;4.28;1.30;;;;;;;8.42;100.00;99193.47;5098864;27;20044;-80
2022/01/03 06:30:34;;;;;;;8.75;2.42;;;;;;;8.41;100.00;99182.81;5106633;28;20051;-81
2022/01/03 06:33:01;;;;;;;13.45;1.70;;;;;;;8.35;100.00;99186.19;5112552;28;20039;-81
2022/01/03 06:35:28;;;;;;;5.13;0.82;;;;;;;8.39;100.00;99177.56;5101353;28;20055;-81
2022/01/03 06:37:56;;;;;;;7.43;2.00;;;;;;;8.38;100.00;99175.03;5094530;28;20052;-87
2022/01/03 06:40:29;;;;;;;4.00;1.08;;;;;;;8.32;100.00;99171.13;5105652;28;20071;-88
2022/01/03 06:42:56;;;;;;;9.32;1.52;;;;;;;8.36;100.00;99182.47;5107195;27;20079;-79
2022/01/03 06:45:23;;;;;;;10.77;1.40;;;;;;;8.20;100.00;99154.38;5102653;28;20044;-79
2022/01/03 06:47:51;;;;;;;7.68;1.25;;;;;;;8.21;100.00;99157.94;5101133;28;20055;-80
2022/01/03 06:50:18;;;;;;;10.63;1.70;;;;;;;8.33;100.00;99168.25;5106627;28;20456;-79
2022/01/03 06:52:44;;;;;;;10.27;1.45;;;;;;;8.30;100.00;99179.41;5104449;28;20051;-79
2022/01/03 06:55:13;;;;;;;7.00;2.70;;;;;;;8.25;100.00;99175.53;5094634;28;20406;-80
2022/01/03 06:57:40;;;;;;;6.85;1.63;;;;;;;8.21;100.00;99174.19;5098482;28;20528;-80
2022/01/03 07:00:08;;;;;;;8.32;1.08;;;;;;;8.32;100.00;99185.53;5105835;28;20071;-80
2022/01/03 07:02:34;;;;;;;7.05;1.30;;;;;;;8.27;100.00;99176.22;5106891;28;20050;-80
2022/01/03 07:05:01;;;;;;;7.38;1.30;;;;;;;8.32;100.00;99180.13;5103212;28;20040;-80
2022/01/03 07:07:28;;;;;;;9.38;1.27;;;;;;;8.28;100.00;99183.31;5104148;28;20051;-80
2022/01/03 07:09:55;;;;;;;6.05;1.17;;;;;;;8.36;100.00;99199.56;5099750;28;20052;-80
2022/01/03 07:12:23;;;;;;;8.65;1.58;;;;;;;8.36;100.00;99179.78;5093059;28;20051;-80
2022/01/03 07:20:19;;;;;;;10.07;1.42;;;;;;;8.33;100.00;99189.06;5109138;28;20054;-80
2022/01/03 07:22:46;;;;;;;7.18;1.55;;;;;;;8.25;100.00;99180.94;5104776;28;20055;-79
2022/01/03 07:25:13;;;;;;;13.32;1.73;;;;;;;8.43;100.00;99194.31;5092148;28;20047;-80
2022/01/03 07:27:41;;;;;;;4.93;1.27;;;;;;;8.31;100.00;99193.84;5092245;28;20040;-80
2022/01/03 07:30:09;;;;;;;9.30;3.67;;;;;;;8.29;100.00;99198.56;5092155;28;20423;-80
2022/01/03 07:32:36;;;;;;;5.72;1.83;;;;;;;8.31;100.00;99194.66;5092430;28;20047;-80
2022/01/03 07:35:04;;;;;;;4.50;1.05;;;;;;;8.25;100.00;99178.22;5107930;28;20058;-80
2022/01/03 07:37:31;;;;;;;6.70;1.52;;;;;;;8.24;100.00;99187.41;5109550;28;20138;-80
2022/01/03 07:39:58;;;;;;;3.70;1.33;;;;;;;8.40;100.00;99191.94;5110239;28;20044;-80
2022/01/03 07:42:25;;;;;;;14.73;2.10;;;;;;;8.28;100.00;99181.47;5097562;28;20196;-80
2022/01/03 07:44:53;;;;;;;6.78;0.80;;;;;;;8.29;100.00;99187.72;5111096;28;20095;-80
2022/01/03 07:47:20;;;;;;;6.10;1.48;;;;;;;8.27;100.00;99184.34;5114395;28;20049;-80
2022/01/03 07:49:47;;;;;;;8.20;1.50;;;;;;;8.35;100.00;99191.63;5100615;28;20054;-80
2022/01/03 07:52:14;;;;;;;10.93;1.88;;;;;;;8.33;100.00;99189.06;5113009;28;20055;-80
2022/01/03 07:54:40;;;;;;;7.03;1.85;;;;;;;8.37;100.00;99192.28;5098703;28;20154;-80
2022/01/03 07:57:07;;;;;;;10.52;1.45;;;;;;;8.34;100.00;99188.06;5106432;28;20051;-80
2022/01/03 07:59:34;;;;;;;8.77;1.60;;;;;;;8.24;100.00;99174.69;5105017;28;20066;-80
2022/01/03 08:02:03;;;;;;;9.95;1.90;;;;;;;8.20;100.00;99162.50;5112492;27;20040;-80
2022/01/03 08:04:30;;;;;;;12.27;2.33;;;;;;;8.20;100.00;99162.50;5094731;28;21384;-80
2022/01/03 08:06:57;;;;;;;6.22;1.60;;;;;;;8.23;100.00;99167.56;5102619;27;20086;-80
2022/01/03 08:09:24;;;;;;;6.97;1.77;;;;;;;8.15;100.00;99164.88;5110797;27;20070;-80
2022/01/03 08:11:52;;;;;;;12.57;2.70;;;;;;;8.24;100.00;99193.66;5100912;28;20054;-80
2022/01/03 08:14:19;;;;;;;13.15;1.85;;;;;;;8.05;100.00;99183.16;5097859;28;20055;-79
2022/01/03 08:16:46;;;;;;;9.13;2.05;;;;;;;8.14;100.00;99204.66;5103653;28;20055;-79
2022/01/03 08:19:14;;;;;;;7.05;1.20;;;;;;;8.03;100.00;99175.19;5099076;28;20052;-79
2022/01/03 08:21:41;;;;;;;8.95;1.88;;;;;;;8.02;100.00;99173.50;5097538;28;20059;-79
2022/01/03 08:24:08;;;;;;;11.32;2.03;;;;;;;8.05;100.00;99188.56;5103553;28;20058;-80
2022/01/03 08:26:37;;;;;;;10.48;1.30;;;;;;;8.07;100.00;99184.69;5108733;28;20052;-79
2022/01/03 08:29:05;;;;;;;9.87;1.80;;;;;;;7.96;100.00;99158.78;5107437;28;20047;-80
2022/01/03 08:31:32;;;;;;;6.78;1.50;;;;;;;8.03;100.00;99174.34;5100076;28;20694;-80
2022/01/03 08:33:59;;;;;;;7.57;1.20;;;;;;;7.92;100.00;99162.00;5109242;28;20043;-79
2022/01/03 08:36:27;;;;;;;4.32;1.25;;;;;;;8.07;100.00;99172.97;5106754;28;20043;-80
2022/01/03 08:38:54;;;;;;;11.52;1.65;;;;;;;8.02;100.00;99169.94;5104910;27;20389;-80
2022/01/03 08:41:21;;;;;;;9.82;2.60;;;;;;;8.15;100.00;99173.84;5106726;28;20052;-80
2022/01/03 08:43:47;;;;;;;16.33;4.53;;;;;;;8.11;100.00;99158.09;5114938;28;20039;-80
2022/01/03 08:46:14;;;;;;;8.98;2.35;;;;;;;8.07;100.00;99178.41;5100380;28;20048;-80
2022/01/03 08:48:41;;;;;;;10.63;1.70;;;;;;;7.97;100.00;99182.13;5094002;28;20044;-80
2022/01/03 08:51:08;;;;;;;14.85;1.80;;;;;;;7.94;100.00;99190.56;5094970;28;20408;-80
2022/01/03 08:53:37;;;;;;;8.45;1.73;;;;;;;8.03;100.00;99190.59;5113185;28;20053;-80
2022/01/03 08:56:05;;;;;;;9.27;1.60;;;;;;;8.04;100.00;99201.25;5105643;28;20055;-80
2022/01/03 08:58:32;;;;;;;5.05;1.30;;;;;;;8.04;100.00;99181.44;5105928;27;20050;-80
2022/01/03 09:00:59;;;;;;;10.48;1.85;;;;;;;8.10;100.00;99175.34;5116513;27;20048;-80
2022/01/03 09:03:26;;;;;;;8.85;1.75;;;;;;;8.22;100.00;99182.16;5113077;28;20097;-80
2022/01/03 09:05:54;;;;;;;9.07;1.83;;;;;;;8.28;100.00;99167.06;5108369;27;20398;-80
2022/01/03 09:08:22;;;;;;;8.32;1.42;;;;;;;8.25;100.00;99175.53;5096302;28;20059;-80
2022/01/03 09:10:51;;;;;;;8.65;1.50;;;;;;;8.17;100.00;99175.53;5106576;28;20044;-80
2022/01/03 09:13:18;;;;;;;8.60;1.52;;;;;;;8.19;100.00;99162.66;5105957;28;20525;-80
2022/01/03 09:15:46;;;;;;;18.23;2.10;;;;;;;8.35;100.00;99162.66;5107943;28;20061;-80
2022/01/03 09:18:13;;;;;;;15.95;1.80;;;;;;;8.28;100.00;99154.38;5108529;28;20043;-80
2022/01/03 09:20:40;;;;;;;6.07;1.42;;;;;;;8.36;100.00;99161.66;5107547;28;20059;-80
2022/01/03 09:23:12;;;;;;;8.75;2.28;;;;;;;8.34;100.00;99144.72;5100505;28;20047;-80
2022/01/03 09:31:09;;;;;;;9.57;1.67;;;;;;;8.36;100.00;99153.53;5108024;27;20051;-81
2022/01/03 09:33:36;;;;;;;9.55;2.42;;;;;;;8.60;100.00;99141.00;5110694;27;20047;-80
2022/01/03 09:36:03;;;;;;;7.07;1.55;;;;;;;8.52;100.00;99150.00;5097247;28;20058;-80
2022/01/03 09:38:30;;;;;;;11.43;1.77;;;;;;;8.45;100.00;99128.13;5094218;28;20285;-80
2022/01/03 09:41:02;;;;;;;9.63;1.80;;;;;;;8.46;100.00;99137.97;5103457;28;20054;-80
2022/01/03 09:43:35;;;;;;;13.13;1.80;;;;;;;8.60;100.00;99146.41;5100811;28;20055;-80
2022/01/03 09:46:04;;;;;;;5.88;1.63;;;;;;;8.55;100.00;99130.69;5102616;27;20089;-80
2022/01/03 09:48:31;;;;;;;8.88;1.65;;;;;;;8.66;100.00;99149.25;5111582;27;20054;-80
2022/01/03 09:51:00;;;;;;;9.95;1.70;;;;;;;8.68;100.00;99147.22;5108974;28;20511;-80
2022/01/03 09:53:28;;;;;;;9.80;1.50;;;;;;;8.60;100.00;99149.13;5093657;28;20055;-80
2022/01/03 09:55:55;;;;;;;9.98;1.73;;;;;;;8.54;100.00;99144.41;5097497;28;20595;-80
2022/01/03 09:58:23;;;;;;;7.13;1.42;;;;;;;8.78;100.00;99147.03;5094628;28;20047;-80
2022/01/03 10:00:51;;;;;;;9.43;1.50;;;;;;;8.77;100.00;99131.78;5098166;28;20040;-80
2022/01/03 10:03:18;;;;;;;5.22;1.50;;;;;;;8.81;100.00;99140.44;5093544;28;20052;-80
2022/01/03 10:05:45;;;;;;;5.45;1.45;;;;;;;8.78;100.00;99146.19;5109300;27;20074;-80
2022/01/03 10:08:12;;;;;;;9.30;1.95;;;;;;;8.82;100.00;99145.69;5106093;28;20050;-80
2022/01/03 10:10:39;;;;;;;10.93;2.10;;;;;;;8.77;100.00;99137.19;5103144;28;20123;-80
2022/01/03 10:13:06;;;;;;;7.72;1.58;;;;;;;8.90;100.00;99146.66;5093498;28;20040;-80
2022/01/03 10:15:33;;;;;;;7.07;1.85;;;;;;;8.81;100.00;99126.88;5107835;28;20522;-80
2022/01/03 10:18:03;;;;;;;4.07;1.45;;;;;;;8.95;100.00;99144.28;5110486;28;20082;-80
2022/01/03 10:20:34;;;;;;;7.88;1.85;;;;;;;8.80;100.00;99115.16;5102074;27;20401;-80
2022/01/03 10:23:11;;;;;;;4.97;1.08;;;;;;;9.08;100.00;99124.72;5114370;27;20044;-80
2022/01/03 10:25:38;;;;;;;5.22;1.52;;;;;;;9.00;100.00;99142.72;5114249;28;20128;-80
2022/01/03 10:28:05;;;;;;;5.85;1.05;;;;;;;9.07;100.00;99121.16;5114368;28;20039;-80
2022/01/03 10:30:35;;;;;;;9.52;1.55;;;;;;;8.98;100.00;99116.81;5113015;28;20054;-80
2022/01/03 10:33:06;;;;;;;6.65;1.50;;;;;;;9.00;100.00;99109.34;5102810;28;20491;-79
2022/01/03 10:35:37;;;;;;;6.07;1.58;;;;;;;8.98;100.00;99124.94;5093695;28;20044;-80
2022/01/03 10:38:05;;;;;;;6.30;1.30;;;;;;;8.96;100.00;99129.72;5093889;28;20044;-81
2022/01/03 10:40:32;;;;;;;11.70;1.77;;;;;;;9.01;100.00;99133.56;5110857;28;20051;-80
2022/01/03 10:43:13;;;;;;;3.80;1.15;;;;;;;9.11;100.00;99121.66;5114104;28;20039;-80
2022/01/03 10:45:41;;;;;;;5.85;1.20;;;;;;;9.07;100.00;99125.75;5107139;28;20112;-81
2022/01/03 10:48:28;;;;;;;11.70;1.75;;;;;;;8.90;100.00;99103.28;5092582;28;20101;-82
2022/01/03 10:50:58;;;;;;;5.43;1.63;;;;;;;8.97;100.00;99097.00;5092187;28;20040;-82
2022/01/03 10:53:37;;;;;;;5.88;1.30;;;;;;;9.15;100.00;99099.44;5093258;28;20044;-79
2022/01/03 10:56:24;;;;;;;6.60;1.50;;;;;;;9.24;100.00;99111.06;5107008;28;20052;-80
2022/01/03 10:58:52;;;;;;;6.68;1.77;;;;;;;9.17;100.00;99107.41;5100024;27;20529;-79
2022/01/03 11:01:22;;;;;;;6.85;2.03;;;;;;;9.13;100.00;99101.47;5113459;28;20047;-79
2022/01/03 11:03:52;;;;;;;8.10;1.88;;;;;;;9.26;100.00;99100.06;5114198;27;20051;-79
2022/01/03 11:06:25;;;;;;;8.98;1.85;;;;;;;9.29;100.00;99092.41;5108686;28;20048;-79
2022/01/03 11:11:40;;;;;;;10.45;1.90;;;;;;;9.39;100.00;99101.19;5101449;28;20427;-79
2022/01/03 11:14:08;;;;;;;6.00;1.40;;;;;;;9.43;100.00;99098.09;5104770;28;20052;-79
2022/01/03 11:16:39;;;;;;;6.28;1.15;;;;;;;9.36;100.00;99078.97;5094023;28;20048;-79
2022/01/03 11:19:11;;;;;;;5.53;1.52;;;;;;;9.48;100.00;99082.94;5100459;28;20051;-79
2022/01/03 11:21:44;;;;;;;6.45;1.52;;;;;;;9.49;100.00;99086.53;5099565;28;20146;-79
2022/01/03 11:24:13;;;;;;;11.90;2.00;;;;;;;9.56;100.00;99088.34;5113875;28;20467;-79
2022/01/03 11:26:46;;;;;;;16.08;3.65;;;;;;;9.52;100.00;99069.88;5107669;28;20115;-79
2022/01/03 11:29:14;;;;;;;8.35;2.33;;;;;;;9.56;100.00;99052.22;5106569;28;20048;-79
2022/01/03 11:31:42;;;;;;;9.48;2.70;;;;;;;9.63;100.00;99065.91;5111762;28;20501;-79
2022/01/03 11:34:13;;;;;;;18.90;2.78;;;;;;;9.81;100.00;99057.44;5095518;28;20424;-79
2022/01/03 11:36:41;;;;;;;9.88;2.20;;;;;;;9.73;100.00;99053.78;5092351;28;20054;-79
2022/01/03 11:39:11;;;;;;;14.77;3.28;;;;;;;9.84;100.00;99067.94;5104473;28;20060;-79
2022/01/03 11:41:40;;;;;;;4.22;1.73;;;;;;;9.82;100.00;99061.88;5112013;28;20418;-79
2022/01/03 11:44:07;;;;;;;3.65;1.48;;;;;;;9.82;100.00;99053.72;5107526;28;20055;-79
2022/01/03 11:46:34;;;;;;;8.05;1.88;;;;;;;9.78;100.00;99049.66;5112275;28;20498;-79
2022/01/03 11:49:02;;;;;;;16.55;2.75;;;;;;;9.74;100.00;99031.03;5111079;28;20071;-79
2022/01/03 11:51:33;;;;;;;7.93;2.15;;;;;;;9.73;100.00;99029.34;5111979;27;20144;-78
2022/01/03 11:54:03;;;;;;;6.82;2.60;;;;;;;9.79;100.00;99032.38;5108896;28;20066;-78
2022/01/03 11:56:30;;;;;;;;;;;;;;;9.91;100.00;99039.88;5109472;28;20829;-79